sensor_id;sensor_type;location;lat;lon;timestamp;P1;durP1;ratioP1;P2;durP2;ratioP2
24030;SDS011;12240;51.142;22.486;2022-07-21T00:01:07;9.43;;;4.07;;
24030;SDS011;12240;51.142;22.486;2022-07-21T00:03:35;8.30;;;4.53;;
24030;SDS011;12240;51.142;22.486;2022-07-21T00:06:04;8.20;;;4.53;;
24030;SDS011;12240;51.142;22.486;2022-07-21T00:08:33;7.20;;;4.57;;
24030;SDS011;12240;51.142;22.486;2022-07-21T00:11:01;7.05;;;4.60;;
24030;SDS011;12240;51.142;22.486;2022-07-21T00:13:30;10.75;;;5.07;;
24030;SDS011;12240;51.142;22.486;2022-07-21T00:15:58;9.15;;;4.50;;
24030;SDS011;12240;51.142;22.486;2022-07-21T00:18:27;8.05;;;4.53;;
24030;SDS011;12240;51.142;22.486;2022-07-21T00:20:56;9.10;;;4.53;;
24030;SDS011;12240;51.142;22.486;2022-07-21T00:23:26;10.23;;;4.97;;
24030;SDS011;12240;51.142;22.486;2022-07-21T00:25:55;9.80;;;5.47;;
24030;SDS011;12240;51.142;22.486;2022-07-21T00:28:24;9.20;;;5.18;;
24030;SDS011;12240;51.142;22.486;2022-07-21T00:30:53;8.30;;;4.68;;
24030;SDS011;12240;51.142;22.486;2022-07-21T00:35:53;9.20;;;4.85;;
24030;SDS011;12240;51.142;22.486;2022-07-21T00:38:22;10.73;;;4.47;;
24030;SDS011;12240;51.142;22.486;2022-07-21T00:40:50;8.27;;;4.55;;
24030;SDS011;12240;51.142;22.486;2022-07-21T00:43:21;9.60;;;4.90;;
24030;SDS011;12240;51.142;22.486;2022-07-21T00:45:53;8.38;;;5.20;;
24030;SDS011;12240;51.142;22.486;2022-07-21T00:48:23;12.27;;;4.82;;
24030;SDS011;12240;51.142;22.486;2022-07-21T00:50:51;8.25;;;4.75;;
24030;SDS011;12240;51.142;22.486;2022-07-21T00:53:21;7.80;;;4.82;;
24030;SDS011;12240;51.142;22.486;2022-07-21T00:55:51;10.00;;;5.13;;
24030;SDS011;12240;51.142;22.486;2022-07-21T00:58:20;10.52;;;5.18;;
24030;SDS011;12240;51.142;22.486;2022-07-21T01:00:51;8.52;;;5.03;;
24030;SDS011;12240;51.142;22.486;2022-07-21T01:03:19;11.30;;;4.93;;
24030;SDS011;12240;51.142;22.486;2022-07-21T01:05:48;7.57;;;4.47;;
24030;SDS011;12240;51.142;22.486;2022-07-21T01:08:18;8.15;;;4.32;;
24030;SDS011;12240;51.142;22.486;2022-07-21T01:10:48;11.75;;;4.82;;
24030;SDS011;12240;51.142;22.486;2022-07-21T01:13:16;12.70;;;5.50;;
24030;SDS011;12240;51.142;22.486;2022-07-21T01:15:45;9.80;;;4.60;;
24030;SDS011;12240;51.142;22.486;2022-07-21T01:18:15;8.60;;;5.03;;
24030;SDS011;12240;51.142;22.486;2022-07-21T01:20:44;10.43;;;4.90;;
24030;SDS011;12240;51.142;22.486;2022-07-21T01:23:23;9.63;;;4.47;;
24030;SDS011;12240;51.142;22.486;2022-07-21T01:25:51;10.77;;;5.28;;
24030;SDS011;12240;51.142;22.486;2022-07-21T01:28:20;10.23;;;4.40;;
24030;SDS011;12240;51.142;22.486;2022-07-21T01:30:48;6.90;;;4.50;;
24030;SDS011;12240;51.142;22.486;2022-07-21T01:33:17;10.82;;;5.10;;
24030;SDS011;12240;51.142;22.486;2022-07-21T01:35:47;10.48;;;4.82;;
24030;SDS011;12240;51.142;22.486;2022-07-21T01:38:17;9.10;;;4.70;;
24030;SDS011;12240;51.142;22.486;2022-07-21T01:41:05;7.53;;;4.88;;
24030;SDS011;12240;51.142;22.486;2022-07-21T01:43:54;8.85;;;4.47;;
24030;SDS011;12240;51.142;22.486;2022-07-21T01:46:36;11.43;;;5.50;;
24030;SDS011;12240;51.142;22.486;2022-07-21T01:49:09;11.00;;;4.65;;
24030;SDS011;12240;51.142;22.486;2022-07-21T01:51:39;10.60;;;5.22;;
24030;SDS011;12240;51.142;22.486;2022-07-21T01:54:08;7.63;;;4.88;;
24030;SDS011;12240;51.142;22.486;2022-07-21T01:56:38;7.53;;;4.35;;
24030;SDS011;12240;51.142;22.486;2022-07-21T01:59:07;7.43;;;4.50;;
24030;SDS011;12240;51.142;22.486;2022-07-21T02:01:35;13.85;;;5.35;;
24030;SDS011;12240;51.142;22.486;2022-07-21T02:04:04;15.15;;;5.25;;
24030;SDS011;12240;51.142;22.486;2022-07-21T02:06:32;8.27;;;4.78;;
24030;SDS011;12240;51.142;22.486;2022-07-21T02:09:01;11.30;;;4.85;;
24030;SDS011;12240;51.142;22.486;2022-07-21T02:11:30;8.60;;;4.97;;
24030;SDS011;12240;51.142;22.486;2022-07-21T02:13:58;8.13;;;4.00;;
24030;SDS011;12240;51.142;22.486;2022-07-21T02:16:26;10.02;;;4.43;;
24030;SDS011;12240;51.142;22.486;2022-07-21T02:18:54;8.27;;;4.35;;
24030;SDS011;12240;51.142;22.486;2022-07-21T02:21:24;10.07;;;4.75;;
24030;SDS011;12240;51.142;22.486;2022-07-21T02:23:52;7.25;;;4.45;;
24030;SDS011;12240;51.142;22.486;2022-07-21T02:26:20;8.27;;;5.05;;
24030;SDS011;12240;51.142;22.486;2022-07-21T02:28:49;10.25;;;4.80;;
24030;SDS011;12240;51.142;22.486;2022-07-21T02:31:17;8.95;;;4.68;;
24030;SDS011;12240;51.142;22.486;2022-07-21T02:33:45;10.88;;;4.72;;
24030;SDS011;12240;51.142;22.486;2022-07-21T02:36:14;9.98;;;4.82;;
24030;SDS011;12240;51.142;22.486;2022-07-21T02:38:42;7.32;;;4.25;;
24030;SDS011;12240;51.142;22.486;2022-07-21T02:41:10;10.07;;;5.00;;
24030;SDS011;12240;51.142;22.486;2022-07-21T02:43:39;8.52;;;4.32;;
24030;SDS011;12240;51.142;22.486;2022-07-21T02:46:07;10.02;;;4.90;;
24030;SDS011;12240;51.142;22.486;2022-07-21T02:48:36;11.18;;;5.00;;
24030;SDS011;12240;51.142;22.486;2022-07-21T02:51:04;9.88;;;4.10;;
24030;SDS011;12240;51.142;22.486;2022-07-21T02:53:34;7.35;;;4.20;;
24030;SDS011;12240;51.142;22.486;2022-07-21T02:56:02;9.18;;;4.50;;
24030;SDS011;12240;51.142;22.486;2022-07-21T02:58:31;9.07;;;4.07;;
24030;SDS011;12240;51.142;22.486;2022-07-21T03:01:00;7.13;;;4.20;;
24030;SDS011;12240;51.142;22.486;2022-07-21T03:03:33;15.75;;;4.82;;
24030;SDS011;12240;51.142;22.486;2022-07-21T03:06:04;13.80;;;4.35;;
24030;SDS011;12240;51.142;22.486;2022-07-21T03:08:32;11.25;;;4.90;;
24030;SDS011;12240;51.142;22.486;2022-07-21T03:11:00;8.70;;;4.85;;
24030;SDS011;12240;51.142;22.486;2022-07-21T03:13:30;9.40;;;4.32;;
24030;SDS011;12240;51.142;22.486;2022-07-21T03:15:58;8.05;;;4.45;;
24030;SDS011;12240;51.142;22.486;2022-07-21T03:18:26;7.15;;;4.38;;
24030;SDS011;12240;51.142;22.486;2022-07-21T03:20:56;9.25;;;4.82;;
24030;SDS011;12240;51.142;22.486;2022-07-21T03:23:25;9.18;;;4.25;;
24030;SDS011;12240;51.142;22.486;2022-07-21T03:25:53;7.32;;;4.47;;
24030;SDS011;12240;51.142;22.486;2022-07-21T03:28:22;13.13;;;4.35;;
24030;SDS011;12240;51.142;22.486;2022-07-21T03:30:50;8.65;;;4.30;;
24030;SDS011;12240;51.142;22.486;2022-07-21T03:33:18;7.72;;;4.22;;
24030;SDS011;12240;51.142;22.486;2022-07-21T03:35:47;7.53;;;3.97;;
24030;SDS011;12240;51.142;22.486;2022-07-21T03:38:15;7.05;;;3.72;;
24030;SDS011;12240;51.142;22.486;2022-07-21T03:40:43;7.47;;;3.75;;
24030;SDS011;12240;51.142;22.486;2022-07-21T03:43:11;10.70;;;3.65;;
24030;SDS011;12240;51.142;22.486;2022-07-21T03:45:39;12.88;;;4.03;;
24030;SDS011;12240;51.142;22.486;2022-07-21T03:48:08;7.80;;;3.83;;
24030;SDS011;12240;51.142;22.486;2022-07-21T03:50:40;14.05;;;3.95;;
24030;SDS011;12240;51.142;22.486;2022-07-21T03:53:09;6.85;;;3.95;;
24030;SDS011;12240;51.142;22.486;2022-07-21T03:55:37;7.93;;;3.83;;
24030;SDS011;12240;51.142;22.486;2022-07-21T03:58:06;6.93;;;4.18;;
24030;SDS011;12240;51.142;22.486;2022-07-21T04:00:36;9.27;;;4.45;;
24030;SDS011;12240;51.142;22.486;2022-07-21T04:03:08;7.07;;;4.30;;
24030;SDS011;12240;51.142;22.486;2022-07-21T04:05:39;13.88;;;4.72;;
24030;SDS011;12240;51.142;22.486;2022-07-21T04:08:09;12.60;;;4.25;;
24030;SDS011;12240;51.142;22.486;2022-07-21T04:10:40;7.70;;;4.18;;
24030;SDS011;12240;51.142;22.486;2022-07-21T04:13:11;10.85;;;4.47;;
24030;SDS011;12240;51.142;22.486;2022-07-21T04:15:40;7.65;;;5.05;;
24030;SDS011;12240;51.142;22.486;2022-07-21T04:18:09;11.77;;;4.95;;
24030;SDS011;12240;51.142;22.486;2022-07-21T04:20:37;9.75;;;4.55;;
24030;SDS011;12240;51.142;22.486;2022-07-21T04:23:06;12.93;;;4.70;;
24030;SDS011;12240;51.142;22.486;2022-07-21T04:25:34;9.25;;;4.63;;
24030;SDS011;12240;51.142;22.486;2022-07-21T04:28:02;8.73;;;4.05;;
24030;SDS011;12240;51.142;22.486;2022-07-21T04:30:31;8.25;;;4.53;;
24030;SDS011;12240;51.142;22.486;2022-07-21T04:32:59;11.80;;;4.70;;
24030;SDS011;12240;51.142;22.486;2022-07-21T04:35:27;10.15;;;4.55;;
24030;SDS011;12240;51.142;22.486;2022-07-21T04:37:55;8.57;;;4.88;;
24030;SDS011;12240;51.142;22.486;2022-07-21T04:40:23;9.07;;;4.70;;
24030;SDS011;12240;51.142;22.486;2022-07-21T04:42:51;8.30;;;4.78;;
24030;SDS011;12240;51.142;22.486;2022-07-21T04:45:20;10.35;;;4.60;;
24030;SDS011;12240;51.142;22.486;2022-07-21T04:47:49;11.27;;;4.65;;
24030;SDS011;12240;51.142;22.486;2022-07-21T04:52:50;7.53;;;3.92;;
24030;SDS011;12240;51.142;22.486;2022-07-21T04:55:19;8.82;;;4.47;;
24030;SDS011;12240;51.142;22.486;2022-07-21T04:57:48;10.13;;;4.25;;
24030;SDS011;12240;51.142;22.486;2022-07-21T05:00:19;8.85;;;4.50;;
24030;SDS011;12240;51.142;22.486;2022-07-21T05:02:52;10.38;;;4.43;;
24030;SDS011;12240;51.142;22.486;2022-07-21T05:05:22;10.20;;;4.32;;
24030;SDS011;12240;51.142;22.486;2022-07-21T05:07:50;8.20;;;3.92;;
24030;SDS011;12240;51.142;22.486;2022-07-21T05:10:19;9.95;;;4.50;;
24030;SDS011;12240;51.142;22.486;2022-07-21T05:12:48;6.88;;;3.75;;
24030;SDS011;12240;51.142;22.486;2022-07-21T05:15:16;8.82;;;3.80;;
24030;SDS011;12240;51.142;22.486;2022-07-21T05:17:48;14.18;;;4.13;;
24030;SDS011;12240;51.142;22.486;2022-07-21T05:20:16;10.18;;;4.00;;
24030;SDS011;12240;51.142;22.486;2022-07-21T05:22:44;8.15;;;3.67;;
24030;SDS011;12240;51.142;22.486;2022-07-21T05:27:44;5.75;;;3.15;;
24030;SDS011;12240;51.142;22.486;2022-07-21T05:30:12;9.02;;;3.10;;
24030;SDS011;12240;51.142;22.486;2022-07-21T05:32:40;7.50;;;2.80;;
24030;SDS011;12240;51.142;22.486;2022-07-21T05:35:14;5.95;;;2.70;;
24030;SDS011;12240;51.142;22.486;2022-07-21T05:37:43;6.05;;;2.42;;
24030;SDS011;12240;51.142;22.486;2022-07-21T05:40:13;5.63;;;2.03;;
24030;SDS011;12240;51.142;22.486;2022-07-21T05:42:41;5.30;;;2.10;;
24030;SDS011;12240;51.142;22.486;2022-07-21T05:45:10;4.82;;;2.00;;
24030;SDS011;12240;51.142;22.486;2022-07-21T05:47:41;4.10;;;1.58;;
24030;SDS011;12240;51.142;22.486;2022-07-21T05:50:09;2.92;;;1.30;;
24030;SDS011;12240;51.142;22.486;2022-07-21T05:52:38;3.28;;;1.40;;
24030;SDS011;12240;51.142;22.486;2022-07-21T05:55:06;6.97;;;1.30;;
24030;SDS011;12240;51.142;22.486;2022-07-21T05:57:36;2.55;;;1.20;;
24030;SDS011;12240;51.142;22.486;2022-07-21T06:00:11;2.80;;;1.27;;
24030;SDS011;12240;51.142;22.486;2022-07-21T06:02:41;2.38;;;1.10;;
24030;SDS011;12240;51.142;22.486;2022-07-21T06:05:11;12.43;;;1.25;;
24030;SDS011;12240;51.142;22.486;2022-07-21T06:07:40;3.92;;;0.98;;
24030;SDS011;12240;51.142;22.486;2022-07-21T06:10:09;3.13;;;1.25;;
24030;SDS011;12240;51.142;22.486;2022-07-21T06:12:42;2.25;;;1.23;;
24030;SDS011;12240;51.142;22.486;2022-07-21T06:15:12;3.45;;;1.38;;
24030;SDS011;12240;51.142;22.486;2022-07-21T06:17:45;5.40;;;2.00;;
24030;SDS011;12240;51.142;22.486;2022-07-21T06:20:13;6.28;;;1.70;;
24030;SDS011;12240;51.142;22.486;2022-07-21T06:22:42;4.53;;;1.75;;
24030;SDS011;12240;51.142;22.486;2022-07-21T06:25:11;2.83;;;1.60;;
24030;SDS011;12240;51.142;22.486;2022-07-21T06:27:39;1.70;;;1.50;;
24030;SDS011;12240;51.142;22.486;2022-07-21T06:30:09;4.07;;;1.20;;
24030;SDS011;12240;51.142;22.486;2022-07-21T06:32:38;2.33;;;0.90;;
24030;SDS011;12240;51.142;22.486;2022-07-21T06:35:07;1.77;;;1.08;;
24030;SDS011;12240;51.142;22.486;2022-07-21T06:37:37;1.75;;;0.95;;
24030;SDS011;12240;51.142;22.486;2022-07-21T06:40:05;2.88;;;1.00;;
24030;SDS011;12240;51.142;22.486;2022-07-21T06:42:34;3.10;;;0.95;;
24030;SDS011;12240;51.142;22.486;2022-07-21T06:45:03;4.10;;;1.00;;
24030;SDS011;12240;51.142;22.486;2022-07-21T06:47:32;4.30;;;0.95;;
24030;SDS011;12240;51.142;22.486;2022-07-21T06:50:00;2.08;;;1.00;;
24030;SDS011;12240;51.142;22.486;2022-07-21T06:52:32;4.65;;;1.10;;
24030;SDS011;12240;51.142;22.486;2022-07-21T06:55:02;2.75;;;1.00;;
24030;SDS011;12240;51.142;22.486;2022-07-21T07:00:05;1.58;;;0.93;;
24030;SDS011;12240;51.142;22.486;2022-07-21T07:02:35;2.63;;;0.90;;
24030;SDS011;12240;51.142;22.486;2022-07-21T07:05:03;2.90;;;1.02;;
24030;SDS011;12240;51.142;22.486;2022-07-21T07:07:33;3.63;;;1.07;;
24030;SDS011;12240;51.142;22.486;2022-07-21T07:10:02;2.45;;;1.20;;
24030;SDS011;12240;51.142;22.486;2022-07-21T07:12:31;2.97;;;1.10;;
24030;SDS011;12240;51.142;22.486;2022-07-21T07:15:19;2.05;;;0.93;;
24030;SDS011;12240;51.142;22.486;2022-07-21T07:17:48;3.50;;;1.00;;
24030;SDS011;12240;51.142;22.486;2022-07-21T07:20:17;1.92;;;1.00;;
24030;SDS011;12240;51.142;22.486;2022-07-21T07:22:45;5.13;;;1.30;;
24030;SDS011;12240;51.142;22.486;2022-07-21T07:25:14;1.50;;;0.90;;
24030;SDS011;12240;51.142;22.486;2022-07-21T07:27:57;4.50;;;1.00;;
24030;SDS011;12240;51.142;22.486;2022-07-21T07:30:26;2.20;;;0.82;;
24030;SDS011;12240;51.142;22.486;2022-07-21T07:32:54;1.63;;;1.10;;
24030;SDS011;12240;51.142;22.486;2022-07-21T07:35:22;6.50;;;1.20;;
24030;SDS011;12240;51.142;22.486;2022-07-21T07:37:51;1.23;;;1.00;;
24030;SDS011;12240;51.142;22.486;2022-07-21T07:40:19;8.65;;;1.42;;
24030;SDS011;12240;51.142;22.486;2022-07-21T07:42:50;5.90;;;1.17;;
24030;SDS011;12240;51.142;22.486;2022-07-21T07:45:19;2.90;;;1.00;;
24030;SDS011;12240;51.142;22.486;2022-07-21T07:47:47;2.80;;;0.90;;
24030;SDS011;12240;51.142;22.486;2022-07-21T07:50:15;1.45;;;0.90;;
24030;SDS011;12240;51.142;22.486;2022-07-21T07:52:44;2.47;;;0.98;;
24030;SDS011;12240;51.142;22.486;2022-07-21T07:55:13;5.20;;;1.08;;
24030;SDS011;12240;51.142;22.486;2022-07-21T07:57:41;5.40;;;1.08;;
24030;SDS011;12240;51.142;22.486;2022-07-21T08:00:13;3.15;;;0.95;;
24030;SDS011;12240;51.142;22.486;2022-07-21T08:03:03;1.98;;;1.00;;
24030;SDS011;12240;51.142;22.486;2022-07-21T08:05:32;1.33;;;0.90;;
24030;SDS011;12240;51.142;22.486;2022-07-21T08:08:00;5.05;;;0.88;;
24030;SDS011;12240;51.142;22.486;2022-07-21T08:10:28;2.08;;;0.82;;
24030;SDS011;12240;51.142;22.486;2022-07-21T08:15:38;2.72;;;1.30;;
24030;SDS011;12240;51.142;22.486;2022-07-21T08:18:07;2.55;;;1.00;;
24030;SDS011;12240;51.142;22.486;2022-07-21T08:20:36;3.25;;;1.08;;
24030;SDS011;12240;51.142;22.486;2022-07-21T08:23:06;3.65;;;1.05;;
24030;SDS011;12240;51.142;22.486;2022-07-21T08:25:37;1.73;;;0.85;;
24030;SDS011;12240;51.142;22.486;2022-07-21T08:28:05;2.10;;;0.80;;
24030;SDS011;12240;51.142;22.486;2022-07-21T08:30:35;3.03;;;1.00;;
24030;SDS011;12240;51.142;22.486;2022-07-21T08:33:04;3.15;;;1.00;;
24030;SDS011;12240;51.142;22.486;2022-07-21T08:35:33;3.33;;;0.90;;
24030;SDS011;12240;51.142;22.486;2022-07-21T08:38:04;4.90;;;1.30;;
24030;SDS011;12240;51.142;22.486;2022-07-21T08:40:37;5.32;;;1.00;;
24030;SDS011;12240;51.142;22.486;2022-07-21T08:43:10;2.55;;;1.00;;
24030;SDS011;12240;51.142;22.486;2022-07-21T08:45:41;2.53;;;1.00;;
24030;SDS011;12240;51.142;22.486;2022-07-21T08:48:10;2.20;;;0.98;;
24030;SDS011;12240;51.142;22.486;2022-07-21T08:50:39;3.30;;;1.20;;
24030;SDS011;12240;51.142;22.486;2022-07-21T08:53:08;4.43;;;1.30;;
24030;SDS011;12240;51.142;22.486;2022-07-21T08:55:37;4.88;;;1.00;;
24030;SDS011;12240;51.142;22.486;2022-07-21T08:58:10;4.35;;;1.27;;
24030;SDS011;12240;51.142;22.486;2022-07-21T09:00:41;2.05;;;1.00;;
24030;SDS011;12240;51.142;22.486;2022-07-21T09:03:14;2.67;;;1.17;;
24030;SDS011;12240;51.142;22.486;2022-07-21T09:06:01;2.58;;;1.15;;
24030;SDS011;12240;51.142;22.486;2022-07-21T09:08:41;3.72;;;1.15;;
24030;SDS011;12240;51.142;22.486;2022-07-21T09:14:05;3.65;;;1.17;;
24030;SDS011;12240;51.142;22.486;2022-07-21T09:16:37;1.85;;;1.08;;
24030;SDS011;12240;51.142;22.486;2022-07-21T09:19:14;3.40;;;1.20;;
24030;SDS011;12240;51.142;22.486;2022-07-21T09:21:46;1.85;;;0.93;;
24030;SDS011;12240;51.142;22.486;2022-07-21T09:27:06;3.35;;;1.05;;
24030;SDS011;12240;51.142;22.486;2022-07-21T09:29:48;2.70;;;0.90;;
24030;SDS011;12240;51.142;22.486;2022-07-21T09:32:26;7.40;;;0.90;;
24030;SDS011;12240;51.142;22.486;2022-07-21T09:35:02;5.35;;;0.90;;
24030;SDS011;12240;51.142;22.486;2022-07-21T09:37:35;1.48;;;0.98;;
24030;SDS011;12240;51.142;22.486;2022-07-21T09:40:07;4.07;;;1.20;;
24030;SDS011;12240;51.142;22.486;2022-07-21T09:42:43;2.90;;;1.13;;
24030;SDS011;12240;51.142;22.486;2022-07-21T09:45:17;4.95;;;0.90;;
24030;SDS011;12240;51.142;22.486;2022-07-21T09:47:46;6.75;;;1.08;;
24030;SDS011;12240;51.142;22.486;2022-07-21T09:50:15;7.38;;;1.45;;
24030;SDS011;12240;51.142;22.486;2022-07-21T09:52:55;6.60;;;1.10;;
24030;SDS011;12240;51.142;22.486;2022-07-21T09:55:30;1.77;;;0.93;;
24030;SDS011;12240;51.142;22.486;2022-07-21T09:57:58;5.00;;;1.10;;
24030;SDS011;12240;51.142;22.486;2022-07-21T10:00:27;4.88;;;1.13;;
24030;SDS011;12240;51.142;22.486;2022-07-21T10:02:55;3.05;;;0.93;;
24030;SDS011;12240;51.142;22.486;2022-07-21T10:05:24;4.70;;;1.00;;
24030;SDS011;12240;51.142;22.486;2022-07-21T10:08:00;2.35;;;0.95;;
24030;SDS011;12240;51.142;22.486;2022-07-21T10:10:34;1.40;;;0.90;;
24030;SDS011;12240;51.142;22.486;2022-07-21T10:13:22;2.53;;;1.00;;
24030;SDS011;12240;51.142;22.486;2022-07-21T10:15:51;1.20;;;0.90;;
24030;SDS011;12240;51.142;22.486;2022-07-21T10:18:22;2.30;;;1.10;;
24030;SDS011;12240;51.142;22.486;2022-07-21T10:20:59;4.10;;;1.00;;
24030;SDS011;12240;51.142;22.486;2022-07-21T10:23:43;5.32;;;1.13;;
24030;SDS011;12240;51.142;22.486;2022-07-21T10:26:16;1.48;;;0.95;;
24030;SDS011;12240;51.142;22.486;2022-07-21T10:28:44;3.53;;;1.10;;
24030;SDS011;12240;51.142;22.486;2022-07-21T10:41:49;4.88;;;1.10;;
24030;SDS011;12240;51.142;22.486;2022-07-21T10:49:52;3.38;;;1.17;;
24030;SDS011;12240;51.142;22.486;2022-07-21T10:57:38;4.95;;;1.17;;
24030;SDS011;12240;51.142;22.486;2022-07-21T11:00:15;2.22;;;1.00;;
24030;SDS011;12240;51.142;22.486;2022-07-21T11:02:59;5.40;;;1.25;;
24030;SDS011;12240;51.142;22.486;2022-07-21T11:05:31;3.10;;;1.00;;
24030;SDS011;12240;51.142;22.486;2022-07-21T11:10:44;1.52;;;0.85;;
24030;SDS011;12240;51.142;22.486;2022-07-21T11:13:19;7.93;;;1.17;;
24030;SDS011;12240;51.142;22.486;2022-07-21T11:15:59;7.30;;;2.13;;
24030;SDS011;12240;51.142;22.486;2022-07-21T11:18:29;4.75;;;1.10;;
24030;SDS011;12240;51.142;22.486;2022-07-21T11:23:48;4.88;;;0.98;;
24030;SDS011;12240;51.142;22.486;2022-07-21T11:26:23;4.28;;;1.20;;
24030;SDS011;12240;51.142;22.486;2022-07-21T11:29:04;7.10;;;1.10;;
24030;SDS011;12240;51.142;22.486;2022-07-21T11:31:44;1.70;;;0.93;;
24030;SDS011;12240;51.142;22.486;2022-07-21T11:34:14;3.88;;;1.13;;
24030;SDS011;12240;51.142;22.486;2022-07-21T11:36:43;3.45;;;1.25;;
24030;SDS011;12240;51.142;22.486;2022-07-21T11:39:13;3.67;;;1.17;;
24030;SDS011;12240;51.142;22.486;2022-07-21T11:41:42;1.20;;;0.90;;
24030;SDS011;12240;51.142;22.486;2022-07-21T11:44:13;1.92;;;0.88;;
24030;SDS011;12240;51.142;22.486;2022-07-21T11:46:53;3.03;;;0.95;;
24030;SDS011;12240;51.142;22.486;2022-07-21T11:49:24;2.78;;;1.20;;
24030;SDS011;12240;51.142;22.486;2022-07-21T11:51:54;2.90;;;0.90;;
24030;SDS011;12240;51.142;22.486;2022-07-21T11:54:33;3.40;;;1.10;;
24030;SDS011;12240;51.142;22.486;2022-07-21T11:57:07;1.40;;;1.00;;
24030;SDS011;12240;51.142;22.486;2022-07-21T11:59:36;5.45;;;0.98;;
24030;SDS011;12240;51.142;22.486;2022-07-21T12:02:13;1.98;;;1.00;;
24030;SDS011;12240;51.142;22.486;2022-07-21T12:07:27;3.05;;;1.13;;
24030;SDS011;12240;51.142;22.486;2022-07-21T12:09:59;2.78;;;1.10;;
24030;SDS011;12240;51.142;22.486;2022-07-21T12:13:13;3.63;;;1.00;;
24030;SDS011;12240;51.142;22.486;2022-07-21T12:15:42;3.90;;;1.20;;
24030;SDS011;12240;51.142;22.486;2022-07-21T12:18:18;2.10;;;1.00;;
24030;SDS011;12240;51.142;22.486;2022-07-21T12:21:00;1.67;;;0.93;;
24030;SDS011;12240;51.142;22.486;2022-07-21T12:23:31;5.13;;;1.15;;
24030;SDS011;12240;51.142;22.486;2022-07-21T12:26:00;3.75;;;1.23;;
24030;SDS011;12240;51.142;22.486;2022-07-21T12:28:47;4.85;;;1.30;;
24030;SDS011;12240;51.142;22.486;2022-07-21T12:31:21;2.75;;;1.00;;
24030;SDS011;12240;51.142;22.486;2022-07-21T12:33:52;2.88;;;1.30;;
24030;SDS011;12240;51.142;22.486;2022-07-21T12:36:46;3.00;;;1.20;;
24030;SDS011;12240;51.142;22.486;2022-07-21T12:39:22;2.05;;;1.25;;
24030;SDS011;12240;51.142;22.486;2022-07-21T12:42:30;3.50;;;1.17;;
24030;SDS011;12240;51.142;22.486;2022-07-21T12:45:12;2.30;;;1.10;;
24030;SDS011;12240;51.142;22.486;2022-07-21T12:50:39;2.40;;;1.00;;
24030;SDS011;12240;51.142;22.486;2022-07-21T12:55:38;4.70;;;1.20;;
24030;SDS011;12240;51.142;22.486;2022-07-21T12:58:07;3.03;;;1.20;;
24030;SDS011;12240;51.142;22.486;2022-07-21T13:00:35;1.83;;;1.20;;
24030;SDS011;12240;51.142;22.486;2022-07-21T13:03:04;6.65;;;1.17;;
24030;SDS011;12240;51.142;22.486;2022-07-21T13:05:32;1.92;;;1.10;;
24030;SDS011;12240;51.142;22.486;2022-07-21T13:08:01;6.40;;;1.30;;
24030;SDS011;12240;51.142;22.486;2022-07-21T13:10:30;4.13;;;1.30;;
24030;SDS011;12240;51.142;22.486;2022-07-21T13:12:59;2.17;;;1.30;;
24030;SDS011;12240;51.142;22.486;2022-07-21T13:15:27;2.65;;;1.15;;
24030;SDS011;12240;51.142;22.486;2022-07-21T13:17:56;3.65;;;1.15;;
24030;SDS011;12240;51.142;22.486;2022-07-21T13:20:26;4.20;;;1.38;;
24030;SDS011;12240;51.142;22.486;2022-07-21T13:22:58;6.38;;;1.77;;
24030;SDS011;12240;51.142;22.486;2022-07-21T13:25:27;2.38;;;1.20;;
24030;SDS011;12240;51.142;22.486;2022-07-21T13:27:58;5.75;;;1.30;;
24030;SDS011;12240;51.142;22.486;2022-07-21T13:30:28;7.13;;;1.70;;
24030;SDS011;12240;51.142;22.486;2022-07-21T13:32:56;6.60;;;1.20;;
24030;SDS011;12240;51.142;22.486;2022-07-21T13:35:25;3.35;;;1.40;;
24030;SDS011;12240;51.142;22.486;2022-07-21T13:37:56;2.20;;;1.25;;
24030;SDS011;12240;51.142;22.486;2022-07-21T13:40:26;2.88;;;1.35;;
24030;SDS011;12240;51.142;22.486;2022-07-21T13:43:16;3.72;;;1.40;;
24030;SDS011;12240;51.142;22.486;2022-07-21T13:46:04;5.70;;;1.30;;
24030;SDS011;12240;51.142;22.486;2022-07-21T13:48:33;4.45;;;1.20;;
24030;SDS011;12240;51.142;22.486;2022-07-21T13:51:10;3.88;;;1.30;;
24030;SDS011;12240;51.142;22.486;2022-07-21T13:56:10;3.75;;;1.45;;
24030;SDS011;12240;51.142;22.486;2022-07-21T13:58:39;3.55;;;1.17;;
24030;SDS011;12240;51.142;22.486;2022-07-21T14:01:10;2.90;;;1.20;;
24030;SDS011;12240;51.142;22.486;2022-07-21T14:03:41;1.98;;;1.20;;
24030;SDS011;12240;51.142;22.486;2022-07-21T14:06:11;2.45;;;1.52;;
24030;SDS011;12240;51.142;22.486;2022-07-21T14:08:40;3.13;;;1.50;;
24030;SDS011;12240;51.142;22.486;2022-07-21T14:11:09;3.97;;;1.67;;
24030;SDS011;12240;51.142;22.486;2022-07-21T14:13:41;3.80;;;1.25;;
24030;SDS011;12240;51.142;22.486;2022-07-21T14:16:11;7.13;;;1.50;;
24030;SDS011;12240;51.142;22.486;2022-07-21T14:18:40;5.07;;;1.65;;
24030;SDS011;12240;51.142;22.486;2022-07-21T14:21:09;4.68;;;1.20;;
24030;SDS011;12240;51.142;22.486;2022-07-21T14:23:37;3.65;;;1.45;;
24030;SDS011;12240;51.142;22.486;2022-07-21T14:26:06;4.35;;;1.63;;
24030;SDS011;12240;51.142;22.486;2022-07-21T14:28:35;7.10;;;1.45;;
24030;SDS011;12240;51.142;22.486;2022-07-21T14:31:03;7.10;;;1.08;;
24030;SDS011;12240;51.142;22.486;2022-07-21T14:33:32;2.80;;;1.60;;
24030;SDS011;12240;51.142;22.486;2022-07-21T14:36:00;3.25;;;1.65;;
24030;SDS011;12240;51.142;22.486;2022-07-21T14:38:28;4.45;;;1.52;;
24030;SDS011;12240;51.142;22.486;2022-07-21T14:40:57;4.53;;;1.70;;
24030;SDS011;12240;51.142;22.486;2022-07-21T14:43:26;3.35;;;1.50;;
24030;SDS011;12240;51.142;22.486;2022-07-21T14:45:54;2.17;;;1.30;;
24030;SDS011;12240;51.142;22.486;2022-07-21T14:48:23;2.60;;;1.33;;
24030;SDS011;12240;51.142;22.486;2022-07-21T14:50:51;4.07;;;1.42;;
24030;SDS011;12240;51.142;22.486;2022-07-21T14:53:20;4.60;;;1.75;;
24030;SDS011;12240;51.142;22.486;2022-07-21T14:55:48;5.05;;;1.70;;
24030;SDS011;12240;51.142;22.486;2022-07-21T14:58:17;4.07;;;1.48;;
24030;SDS011;12240;51.142;22.486;2022-07-21T15:00:46;5.88;;;1.88;;
24030;SDS011;12240;51.142;22.486;2022-07-21T15:03:14;4.88;;;1.70;;
24030;SDS011;12240;51.142;22.486;2022-07-21T15:05:44;3.40;;;1.27;;
24030;SDS011;12240;51.142;22.486;2022-07-21T15:08:12;4.18;;;1.70;;
24030;SDS011;12240;51.142;22.486;2022-07-21T15:10:41;6.28;;;1.48;;
24030;SDS011;12240;51.142;22.486;2022-07-21T15:13:14;4.40;;;1.48;;
24030;SDS011;12240;51.142;22.486;2022-07-21T15:15:43;5.68;;;1.67;;
24030;SDS011;12240;51.142;22.486;2022-07-21T15:18:14;7.18;;;1.90;;
24030;SDS011;12240;51.142;22.486;2022-07-21T15:20:45;4.90;;;1.60;;
24030;SDS011;12240;51.142;22.486;2022-07-21T15:23:13;6.30;;;1.90;;
24030;SDS011;12240;51.142;22.486;2022-07-21T15:25:42;2.33;;;1.60;;
24030;SDS011;12240;51.142;22.486;2022-07-21T15:28:10;3.95;;;1.75;;
24030;SDS011;12240;51.142;22.486;2022-07-21T15:30:38;4.38;;;1.75;;
24030;SDS011;12240;51.142;22.486;2022-07-21T15:33:06;5.65;;;1.60;;
24030;SDS011;12240;51.142;22.486;2022-07-21T15:35:35;6.13;;;1.77;;
24030;SDS011;12240;51.142;22.486;2022-07-21T15:38:03;4.05;;;1.70;;
24030;SDS011;12240;51.142;22.486;2022-07-21T15:40:39;7.18;;;1.90;;
24030;SDS011;12240;51.142;22.486;2022-07-21T15:43:08;3.83;;;1.60;;
24030;SDS011;12240;51.142;22.486;2022-07-21T15:45:36;5.60;;;1.95;;
24030;SDS011;12240;51.142;22.486;2022-07-21T15:48:04;3.30;;;1.90;;
24030;SDS011;12240;51.142;22.486;2022-07-21T15:50:33;6.20;;;1.92;;